Time;durP1;ratioP1;P1;durP2;ratioP2;P2;SDS_P1;SDS_P2;PMS_P1;PMS_P2;Temp;Humidity;BMP_temperature;BMP_pressure;BME280_temperature;BME280_humidity;BME280_pressure;Samples;Min_cycle;Max_cycle;Signal;HPM_P1;HPM_P2
2022/06/14 00:00:53;;;;;;;13.07;5.60;;;;;;;9.94;82.81;102292.28;5055180;28;20029;-80
2022/06/14 00:03:40;;;;;;;9.83;4.97;;;;;;;9.95;83.01;102289.44;5055579;28;20048;-80
2022/06/14 00:06:10;;;;;;;12.87;5.40;;;;;;;9.81;83.32;102292.81;5067570;28;20052;-80
2022/06/14 00:08:36;;;;;;;11.37;4.97;;;;;;;9.82;84.11;102301.78;5052275;28;20146;-80
2022/06/14 00:11:07;;;;;;;10.87;5.07;;;;;;;9.79;84.07;102300.25;5061017;28;20363;-80
2022/06/14 00:13:33;;;;;;;14.30;6.17;;;;;;;9.74;84.86;102292.66;5067109;28;20086;-80
2022/06/14 00:15:59;;;;;;;11.27;5.53;;;;;;;9.76;85.34;102296.06;5053945;28;20373;-80
2022/06/14 00:18:24;;;;;;;15.57;5.37;;;;;;;9.67;85.02;102297.09;5055560;28;20040;-80
2022/06/14 00:20:51;;;;;;;11.07;5.50;;;;;;;9.62;85.29;102297.56;5054862;28;20043;-80
2022/06/14 00:23:17;;;;;;;15.53;5.90;;;;;;;9.59;85.09;102295.22;5035765;28;20037;-81
2022/06/14 00:25:47;;;;;;;11.10;5.60;;;;;;;9.59;85.21;102299.78;5054954;28;20087;-80
2022/06/14 00:28:16;;;;;;;12.53;5.77;;;;;;;9.57;85.00;102299.09;5054384;28;20036;-80
2022/06/14 00:30:45;;;;;;;16.33;6.70;;;;;;;9.56;84.88;102300.09;5058162;28;20035;-80
2022/06/14 00:33:11;;;;;;;12.60;5.60;;;;;;;9.58;84.87;102298.94;5075112;28;20025;-80
2022/06/14 00:35:36;;;;;;;14.13;6.00;;;;;;;9.62;85.64;102304.84;5062329;28;20036;-80
2022/06/14 00:38:03;;;;;;;13.37;6.07;;;;;;;9.64;85.94;102297.41;5052316;28;20099;-80
2022/06/14 00:40:32;;;;;;;12.63;6.30;;;;;;;9.64;86.92;102297.41;5052844;28;20108;-80
2022/06/14 00:43:02;;;;;;;12.67;7.03;;;;;;;9.53;86.00;102300.47;5052770;28;20150;-80
2022/06/14 00:45:27;;;;;;;13.43;5.77;;;;;;;9.53;85.88;102301.28;5052685;28;20029;-80
2022/06/14 00:48:05;;;;;;;12.90;5.50;;;;;;;9.48;86.73;102300.09;5056732;28;20043;-80
2022/06/14 00:50:40;;;;;;;12.20;5.67;;;;;;;9.46;86.47;102300.28;5066872;28;20115;-80
2022/06/14 00:53:14;;;;;;;9.97;6.03;;;;;;;9.41;86.70;102303.50;5056359;28;20428;-80
2022/06/14 00:55:49;;;;;;;11.20;6.13;;;;;;;9.44;87.05;102302.31;5053650;28;20549;-80
2022/06/14 00:58:20;;;;;;;10.60;5.97;;;;;;;9.41;87.02;102289.13;5050437;28;20055;-80
2022/06/14 01:00:51;;;;;;;11.83;5.67;;;;;;;9.33;87.08;102289.09;5051954;28;20468;-80
2022/06/14 01:03:21;;;;;;;12.13;5.80;;;;;;;9.32;86.88;102293.69;5041131;28;20488;-80
2022/06/14 01:06:05;;;;;;;14.97;6.20;;;;;;;9.40;87.68;102287.44;5054020;28;20128;-80
2022/06/14 01:08:33;;;;;;;11.30;6.00;;;;;;;9.35;88.06;102292.50;5048684;28;20086;-80
2022/06/14 01:10:59;;;;;;;14.23;6.30;;;;;;;9.24;88.17;102275.59;5053851;28;20517;-80
2022/06/14 01:13:25;;;;;;;16.50;6.70;;;;;;;9.36;88.48;102277.97;5053239;28;20111;-80
2022/06/14 01:15:54;;;;;;;13.23;6.27;;;;;;;9.39;88.68;102275.75;5035227;28;20036;-80
2022/06/14 01:18:20;;;;;;;9.97;5.83;;;;;;;9.41;89.52;102270.19;5052745;28;20033;-80
2022/06/14 01:20:45;;;;;;;9.57;5.40;;;;;;;9.32;89.68;102265.81;5052647;28;20083;-80
2022/06/14 01:23:14;;;;;;;11.10;5.63;;;;;;;9.26;88.75;102278.13;5059658;28;20024;-80
2022/06/14 01:25:45;;;;;;;15.20;6.30;;;;;;;9.26;88.55;102281.69;5064498;28;20037;-80
2022/06/14 01:28:12;;;;;;;12.83;6.30;;;;;;;9.12;88.88;102266.97;5054031;28;20035;-80
2022/06/14 01:30:46;;;;;;;15.00;6.10;;;;;;;9.18;89.08;102278.09;5054187;28;20028;-80
2022/06/14 01:33:16;;;;;;;12.60;6.40;;;;;;;9.09;88.40;102277.28;5055280;28;20036;-80
2022/06/14 01:35:48;;;;;;;12.47;6.50;;;;;;;9.10;88.90;102273.56;5065731;28;20039;-80
2022/06/14 01:38:15;;;;;;;12.23;6.20;;;;;;;9.10;88.81;102274.38;5072926;28;20027;-80
2022/06/14 01:41:06;;;;;;;15.80;6.63;;;;;;;9.15;89.31;102276.59;5063823;28;20385;-80
2022/06/14 01:44:09;;;;;;;12.47;6.27;;;;;;;9.12;88.60;102274.22;5053303;28;20036;-80
2022/06/14 01:47:06;;;;;;;13.97;6.60;;;;;;;9.09;87.97;102275.41;5052410;28;20118;-80
2022/06/14 01:52:42;;;;;;;13.33;6.30;;;;;;;8.95;88.74;102260.69;5056764;28;20039;-80
2022/06/14 01:55:26;;;;;;;12.57;6.60;;;;;;;9.04;89.51;102272.34;5035466;28;20091;-80
2022/06/14 01:58:02;;;;;;;13.00;6.37;;;;;;;8.89;89.91;102255.09;5053139;28;20079;-80
2022/06/14 02:00:30;;;;;;;13.27;6.53;;;;;;;8.94;89.30;102258.97;5045308;28;20047;-80
2022/06/14 02:06:14;;;;;;;11.87;6.03;;;;;;;8.93;89.50;102262.72;5037157;28;20503;-80
2022/06/14 02:08:49;;;;;;;11.03;6.47;;;;;;;8.88;89.69;102264.19;5041243;28;20044;-80
2022/06/14 02:11:30;;;;;;;12.90;7.00;;;;;;;8.79;89.42;102247.13;5059299;28;20359;-80
2022/06/14 02:14:06;;;;;;;16.07;7.37;;;;;;;8.79;88.89;102256.09;5073086;28;20111;-80
2022/06/14 02:16:43;;;;;;;13.73;6.80;;;;;;;8.84;89.62;102261.00;5054451;28;20021;-80
2022/06/14 02:19:22;;;;;;;14.53;6.77;;;;;;;8.90;90.16;102252.22;5053341;28;20031;-79
2022/06/14 02:21:57;;;;;;;16.83;7.37;;;;;;;8.88;89.97;102251.56;5071009;28;20107;-80
2022/06/14 02:24:31;;;;;;;16.53;7.43;;;;;;;8.86;89.69;102252.72;5052160;28;20017;-80
2022/06/14 02:27:18;;;;;;;13.23;6.80;;;;;;;8.86;89.63;102258.13;5052958;28;20402;-80
2022/06/14 02:29:56;;;;;;;15.30;7.10;;;;;;;8.85;89.99;102249.16;5033566;28;20047;-80
2022/06/14 02:32:28;;;;;;;12.83;6.70;;;;;;;8.82;90.30;102240.56;5051719;28;20032;-80
2022/06/14 02:35:28;;;;;;;14.20;7.40;;;;;;;8.86;90.67;102245.47;5051145;28;20037;-80
2022/06/14 02:38:01;;;;;;;15.27;7.27;;;;;;;8.70;90.75;102238.16;5019314;28;20040;-80
2022/06/14 02:40:34;;;;;;;17.93;7.80;;;;;;;8.69;91.48;102238.31;5053441;28;20029;-80
2022/06/14 02:43:27;;;;;;;14.73;7.03;;;;;;;8.59;91.20;102239.34;5060473;28;20036;-80
2022/06/14 02:45:54;;;;;;;14.17;7.00;;;;;;;8.60;90.30;102240.16;5060570;28;20116;-79
2022/06/14 02:48:22;;;;;;;14.70;7.03;;;;;;;8.54;90.31;102241.69;5056064;28;20028;-80
2022/06/14 02:50:54;;;;;;;14.00;7.40;;;;;;;8.60;90.68;102241.00;5055828;28;20040;-79
2022/06/14 02:53:46;;;;;;;13.17;7.30;;;;;;;8.67;91.09;102234.94;5054305;28;20456;-80
2022/06/14 02:56:24;;;;;;;15.20;6.33;;;;;;;8.71;91.66;102228.22;5038200;28;20040;-80
2022/06/14 02:59:21;;;;;;;13.40;6.97;;;;;;;8.69;91.53;102239.19;5055021;28;20104;-79
2022/06/14 03:02:06;;;;;;;12.60;6.30;;;;;;;8.57;90.72;102235.09;5048377;28;20029;-80
2022/06/14 03:04:40;;;;;;;14.15;7.30;;;;;;;8.58;91.48;102234.94;5058443;28;20033;-80
2022/06/14 03:07:16;;;;;;;;;;;;;;;8.72;89.96;102238.84;5040190;28;20041;-80
2022/06/14 03:09:45;;;;;;;10.53;6.00;;;;;;;8.52;90.50;102240.16;5054864;28;19932;-79
2022/06/14 03:12:44;;;;;;;14.30;7.00;;;;;;;8.54;91.65;102233.56;5055998;28;20025;-80
2022/06/14 03:15:31;;;;;;;14.63;7.30;;;;;;;8.35;91.24;102215.75;5045921;28;20032;-80
2022/06/14 03:18:26;;;;;;;12.07;6.77;;;;;;;8.48;91.75;102239.63;5053867;28;20419;-80
2022/06/14 03:20:54;;;;;;;13.38;6.85;;;;;;;8.20;91.24;102212.81;5050307;28;20033;-80
2022/06/14 03:23:41;;;;;;;13.53;7.20;;;;;;;8.43;91.89;102242.78;5054248;28;20036;-79
2022/06/14 03:26:15;;;;;;;9.33;6.40;;;;;;;8.31;92.55;102240.53;5050881;28;20031;-80
2022/06/14 03:28:54;;;;;;;12.25;7.20;;;;;;;8.35;93.44;102239.19;5055008;28;20082;-80
2022/06/14 03:31:34;;;;;;;12.37;6.50;;;;;;;8.25;92.28;102237.50;5069921;28;20025;-79
2022/06/14 03:34:07;;;;;;;12.47;7.17;;;;;;;8.15;92.00;102231.34;5055383;28;20258;-80
2022/06/14 03:36:33;;;;;;;13.93;7.07;;;;;;;8.18;91.47;102239.13;5054511;28;20025;-79
2022/06/14 03:39:17;;;;;;;14.13;6.80;;;;;;;8.19;92.11;102243.53;5053253;28;20028;-80
2022/06/14 03:41:47;;;;;;;14.98;8.07;;;;;;;8.29;92.83;102243.41;5055561;28;20409;-79
2022/06/14 03:44:15;;;;;;;14.20;7.30;;;;;;;8.27;92.96;102246.25;5064439;28;20033;-79
2022/06/14 03:46:48;;;;;;;12.33;6.90;;;;;;;8.20;92.57;102244.34;5054722;28;20067;-79
2022/06/14 03:49:19;;;;;;;12.10;6.70;;;;;;;8.18;92.25;102247.22;5055203;28;20032;-79
2022/06/14 03:51:53;;;;;;;13.13;7.17;;;;;;;8.23;92.67;102239.50;5054183;28;20044;-79
2022/06/14 03:54:37;;;;;;;;;;;;;;;8.33;91.43;102238.53;5054815;28;20031;-79
2022/06/14 03:57:24;;;;;;;11.10;6.47;;;;;;;8.19;92.23;102232.72;5052343;28;20268;-79
2022/06/14 04:00:18;;;;;;;13.13;6.60;;;;;;;8.18;92.45;102230.19;5054667;28;20103;-79
2022/06/14 04:03:10;;;;;;;13.63;7.97;;;;;;;8.18;93.32;102236.44;5036639;28;20057;-79
2022/06/14 04:05:57;;;;;;;11.43;7.10;;;;;;;8.25;93.63;102242.91;5016979;28;20428;-79
2022/06/14 04:08:46;;;;;;;14.60;6.83;;;;;;;8.32;94.36;102242.22;5051006;28;20369;-79
2022/06/14 04:11:43;;;;;;;14.03;6.97;;;;;;;8.31;94.60;102249.50;5054837;28;20032;-79
2022/06/14 04:14:14;;;;;;;13.23;7.27;;;;;;;8.28;94.20;102249.78;5053841;28;20074;-79
2022/06/14 04:16:48;;;;;;;13.47;7.43;;;;;;;8.28;94.18;102241.69;5053465;28;20059;-79
2022/06/14 04:19:46;;;;;;;16.38;7.60;;;;;;;8.36;94.42;102249.81;5054024;28;20523;-79
2022/06/14 04:22:21;;;;;;;16.23;7.70;;;;;;;8.25;94.37;102226.69;5053495;28;20033;-79
2022/06/14 04:25:03;;;;;;;11.90;7.65;;;;;;;8.43;93.81;102255.44;5055014;28;20419;-79
2022/06/14 04:27:35;;;;;;;13.63;7.40;;;;;;;8.43;93.48;102256.28;5054269;28;20072;-79
2022/06/14 04:30:13;;;;;;;15.57;7.37;;;;;;;8.52;94.33;102262.59;5053061;28;20428;-79
2022/06/14 04:32:54;;;;;;;17.47;7.63;;;;;;;8.58;94.22;102264.66;5036267;28;20055;-79
2022/06/14 04:35:24;;;;;;;13.13;7.40;;;;;;;8.60;93.65;102248.28;5053545;28;20540;-80
2022/06/14 04:37:59;;;;;;;17.17;8.33;;;;;;;8.72;94.47;102260.47;5056543;28;20036;-79
2022/06/14 04:40:31;;;;;;;15.33;7.83;;;;;;;8.82;95.11;102260.31;5052662;28;20070;-80
2022/06/14 04:43:03;;;;;;;14.77;7.47;;;;;;;8.82;95.28;102254.91;5051501;28;20043;-79
2022/06/14 04:45:46;;;;;;;13.90;7.97;;;;;;;8.89;95.32;102252.38;5052195;28;20080;-80
2022/06/14 04:48:20;;;;;;;14.97;7.83;;;;;;;8.97;95.42;102256.97;5061081;28;20020;-80
2022/06/14 04:50:53;;;;;;;;;;;;;;;9.07;94.00;102260.34;5063721;28;20522;-80
2022/06/14 04:53:30;;;;;;;15.67;7.70;;;;;;;9.12;95.25;102255.28;5033877;28;19935;-80
2022/06/14 04:56:34;;;;;;;17.40;8.80;;;;;;;9.22;94.15;102260.53;5040060;28;20384;-80
2022/06/14 04:59:06;;;;;;;18.50;8.80;;;;;;;9.30;93.21;102263.25;5054646;28;20051;-80
2022/06/14 05:01:37;;;;;;;18.00;8.80;;;;;;;9.38;93.15;102260.53;5052581;28;20524;-80
2022/06/14 05:04:12;;;;;;;18.43;8.70;;;;;;;9.48;92.39;102254.97;5053548;28;20021;-80
2022/06/14 05:06:46;;;;;;;17.03;8.57;;;;;;;9.61;92.81;102255.31;5053369;28;20503;-80
2022/06/14 05:09:17;;;;;;;17.27;8.68;;;;;;;9.75;92.84;102259.19;5034380;28;20033;-79
2022/06/14 05:12:00;;;;;;;21.03;9.00;;;;;;;9.84;93.75;102257.28;5054248;28;20449;-80
2022/06/14 05:14:33;;;;;;;19.03;9.07;;;;;;;9.91;94.43;102249.31;5052941;28;20024;-80
2022/06/14 05:17:07;;;;;;;15.77;8.60;;;;;;;10.01;93.99;102255.41;5016540;28;20036;-80
2022/06/14 05:19:45;;;;;;;18.90;8.97;;;;;;;10.12;93.80;102265.84;5053235;28;20132;-80
2022/06/14 05:22:17;;;;;;;17.87;8.83;;;;;;;10.20;93.51;102261.41;5053214;28;20029;-80
2022/06/14 05:24:42;;;;;;;18.47;8.87;;;;;;;10.29;93.53;102255.81;5053398;28;20021;-80
2022/06/14 05:27:26;;;;;;;17.70;8.13;;;;;;;10.45;92.33;102267.63;5051894;28;20364;-80
2022/06/14 05:30:00;;;;;;;17.37;7.83;;;;;;;10.53;90.80;102273.00;5056183;28;20032;-80
2022/06/14 05:32:58;;;;;;;17.52;8.02;;;;;;;10.68;89.75;102269.56;5052497;28;20287;-80
2022/06/14 05:35:30;;;;;;;17.80;8.40;;;;;;;10.80;89.94;102277.09;5050901;28;20397;-81
2022/06/14 05:38:10;;;;;;;17.43;8.37;;;;;;;10.93;91.04;102279.25;5052577;28;20037;-81
2022/06/14 05:40:43;;;;;;;17.90;8.10;;;;;;;11.02;90.42;102271.88;5036113;28;20403;-81
2022/06/14 05:43:16;;;;;;;19.43;8.00;;;;;;;11.13;89.43;102270.63;5034644;28;20024;-80
2022/06/14 05:45:55;;;;;;;18.40;7.90;;;;;;;11.26;89.20;102276.31;5050914;28;20024;-81
2022/06/14 05:48:32;;;;;;;17.70;7.77;;;;;;;11.32;89.48;102278.28;5052530;28;20029;-81
2022/06/14 05:50:59;;;;;;;15.33;7.10;;;;;;;11.44;88.54;102277.88;5050944;28;20074;-81
2022/06/14 05:53:36;;;;;;;16.23;6.93;;;;;;;11.59;88.11;102273.31;5051951;28;20037;-80
2022/06/14 05:56:12;;;;;;;16.67;7.00;;;;;;;11.72;87.09;102275.41;5053159;28;20033;-80
2022/06/14 05:59:14;;;;;;;17.20;7.17;;;;;;;11.83;86.83;102279.53;5061082;28;20464;-80
2022/06/14 06:01:53;;;;;;;16.00;6.37;;;;;;;12.03;85.98;102279.03;5071216;28;20041;-80
2022/06/14 06:04:26;;;;;;;14.83;5.93;;;;;;;12.14;85.58;102284.84;5062068;28;20028;-80
2022/06/14 06:06:58;;;;;;;14.53;6.20;;;;;;;12.29;85.50;102286.69;5052493;28;20040;-80
2022/06/14 06:09:32;;;;;;;15.50;6.47;;;;;;;12.41;83.37;102284.38;5049892;28;20329;-80
2022/06/14 06:12:31;;;;;;;15.63;6.55;;;;;;;12.54;83.19;102287.25;5042244;28;20033;-80
2022/06/14 06:15:15;;;;;;;16.23;6.03;;;;;;;12.72;83.82;102291.44;5053063;28;20078;-80
2022/06/14 06:17:47;;;;;;;;;;;;;;;12.82;84.58;102294.69;5034277;28;20163;-80
2022/06/14 06:20:24;;;;;;;13.30;5.50;;;;;;;12.98;81.20;102296.34;5054955;28;19912;-81
2022/06/14 06:23:00;;;;;;;13.57;5.80;;;;;;;12.93;80.64;102277.03;5068361;28;20058;-80
2022/06/14 06:25:29;;;;;;;12.07;5.13;;;;;;;13.04;78.56;102297.44;5054631;28;20372;-80
2022/06/14 06:28:21;;;;;;;12.20;5.40;;;;;;;13.23;79.69;102291.38;5047641;28;20031;-81
2022/06/14 06:30:56;;;;;;;13.97;4.90;;;;;;;13.41;77.55;102290.97;5037087;28;20115;-81
2022/06/14 06:33:25;;;;;;;12.80;4.75;;;;;;;13.56;76.96;102290.88;5060690;28;20036;-80
2022/06/14 06:36:00;;;;;;;13.30;5.33;;;;;;;13.74;77.67;102287.66;5047793;28;20175;-80
2022/06/14 06:38:36;;;;;;;10.10;3.80;;;;;;;13.89;74.47;102290.28;5043970;28;20454;-81
2022/06/14 06:44:00;;;;;;;11.03;3.63;;;;;;;14.05;70.31;102296.47;5043228;28;20051;-82
2022/06/14 06:46:31;;;;;;;9.97;3.37;;;;;;;14.22;72.43;102295.09;5043883;28;20498;-80
2022/06/14 06:49:00;;;;;;;9.80;3.90;;;;;;;14.26;69.41;102288.22;5044108;28;20037;-81
2022/06/14 06:51:35;;;;;;;8.53;3.50;;;;;;;14.35;68.51;102297.09;5044150;28;20036;-80
2022/06/14 06:54:08;;;;;;;;;;;;;;;14.52;72.83;102308.47;5043714;28;20033;-81
2022/06/14 06:56:39;;;;;;;9.53;3.70;;;;;;;14.61;69.20;102301.00;5024776;28;19921;-81
2022/06/14 06:59:14;;;;;;;9.83;3.30;;;;;;;14.74;68.38;102301.06;5043411;28;20028;-81
2022/06/14 07:01:42;;;;;;;6.80;2.50;;;;;;;14.77;67.13;102299.78;5044398;28;20044;-81
2022/06/14 07:04:19;;;;;;;8.00;2.70;;;;;;;14.89;68.70;102292.72;5042913;28;20113;-80
2022/06/14 07:06:50;;;;;;;9.90;3.10;;;;;;;14.96;65.86;102293.59;5042958;28;20054;-81
2022/06/14 07:09:46;;;;;;;6.00;2.90;;;;;;;15.13;67.27;102301.38;5042823;28;20100;-81
2022/06/14 07:12:26;;;;;;;8.83;2.20;;;;;;;15.24;64.24;102289.84;5043874;28;20167;-80
2022/06/14 07:15:01;;;;;;;6.47;2.20;;;;;;;15.43;64.29;102295.56;5042937;28;20368;-81
2022/06/14 07:17:47;;;;;;;6.23;2.37;;;;;;;15.54;62.55;102289.44;5041740;28;20025;-81
2022/06/14 07:20:19;;;;;;;6.63;2.40;;;;;;;15.66;60.45;102298.69;5042736;28;20036;-81
2022/06/14 07:22:53;;;;;;;9.17;2.60;;;;;;;15.59;62.61;102295.13;5042104;28;20086;-81
2022/06/14 07:25:26;;;;;;;7.15;2.00;;;;;;;15.53;60.28;102296.00;5042702;28;20495;-81
2022/06/14 07:28:42;;;;;;;6.67;1.93;;;;;;;15.54;58.97;102300.38;5040189;28;20047;-80
2022/06/14 07:31:16;;;;;;;7.33;2.07;;;;;;;15.60;56.49;102296.81;4978246;28;20331;-82
2022/06/14 07:33:42;;;;;;;6.38;1.90;;;;;;;15.65;54.74;102293.44;5032523;28;20174;-82
2022/06/14 07:36:19;;;;;;;10.17;1.90;;;;;;;15.78;56.64;102290.72;5042507;28;20124;-80
2022/06/14 07:38:54;;;;;;;5.43;2.10;;;;;;;15.82;56.65;102281.06;5043459;28;20372;-81
2022/06/14 07:41:30;;;;;;;10.13;2.90;;;;;;;15.90;60.07;102292.81;5042089;28;20468;-81
2022/06/14 07:44:16;;;;;;;6.20;2.27;;;;;;;15.88;57.95;102290.31;5042807;28;20055;-81
2022/06/14 07:46:55;;;;;;;8.17;2.23;;;;;;;15.91;58.78;102292.63;5042256;28;21432;-81
2022/06/14 07:49:46;;;;;;;6.73;2.37;;;;;;;15.96;57.25;102292.81;5042195;28;20039;-81
2022/06/14 07:52:17;;;;;;;5.53;2.10;;;;;;;16.18;57.94;102287.09;5041773;28;20119;-81
2022/06/14 07:54:47;;;;;;;3.53;1.70;;;;;;;16.22;56.87;102293.81;5042119;28;20044;-81
2022/06/14 07:57:19;;;;;;;7.30;2.30;;;;;;;16.20;55.03;102291.31;5040540;28;20033;-81
2022/06/14 08:01:07;;;;;;;6.17;2.20;;;;;;;16.26;57.56;102284.13;5034677;28;20037;-81
2022/06/14 08:02:49;;;;;;;9.20;2.37;;;;;;;16.23;56.37;102286.47;5036219;28;20063;-80
2022/06/14 08:05:20;;;;;;;5.53;2.40;;;;;;;16.36;57.62;102286.44;5025741;28;20029;-82
2022/06/14 08:07:50;;;;;;;4.67;1.93;;;;;;;16.53;56.56;102297.72;5048360;28;20028;-79
2022/06/14 08:10:24;;;;;;;7.80;2.00;;;;;;;16.65;56.23;102297.91;5075260;28;20045;-80
2022/06/14 08:12:52;;;;;;;;;;;;;;;16.97;57.47;102287.88;5075670;28;20532;-81
2022/06/14 08:15:51;;;;;;;8.13;2.37;;;;;;;16.88;53.08;102286.41;5074827;28;20016;-81
2022/06/14 08:18:35;;;;;;;6.63;2.10;;;;;;;17.15;56.10;102283.56;5057013;28;20040;-82
2022/06/14 08:21:14;;;;;;;6.60;2.23;;;;;;;17.11;51.73;102282.28;5056751;28;20915;-82
2022/06/14 08:23:54;;;;;;;5.77;1.80;;;;;;;17.30;53.13;102286.81;5049959;28;20063;-81
2022/06/14 08:26:45;;;;;;;5.20;2.13;;;;;;;17.43;52.45;102274.06;5051036;28;20025;-81
2022/06/14 08:29:46;;;;;;;8.73;2.20;;;;;;;17.68;53.18;102280.41;5051223;28;20602;-81
2022/06/14 08:32:22;;;;;;;6.87;2.00;;;;;;;17.64;52.64;102276.44;5045672;28;20071;-80
2022/06/14 08:34:54;;;;;;;5.97;2.20;;;;;;;17.99;53.98;102272.31;5046599;28;20040;-80
2022/06/14 08:37:35;;;;;;;7.37;2.63;;;;;;;18.37;54.57;102265.78;5044109;28;20086;-80
2022/06/14 08:40:16;;;;;;;6.30;2.20;;;;;;;18.56;51.38;102269.34;5045064;28;20025;-80
2022/06/14 08:43:04;;;;;;;4.25;2.13;;;;;;;18.97;52.15;102267.78;5047256;28;20028;-80
2022/06/14 08:45:35;;;;;;;6.43;2.17;;;;;;;19.48;51.56;102272.91;5045125;28;20376;-80
2022/06/14 08:48:19;;;;;;;6.03;2.60;;;;;;;19.78;48.42;102270.03;5055649;28;20024;-81
2022/06/14 08:51:11;;;;;;;5.82;2.15;;;;;;;20.01;46.37;102271.97;5053240;28;20021;-82
2022/06/14 08:53:58;;;;;;;6.72;2.50;;;;;;;20.17;48.11;102277.84;5046535;28;20116;-82
2022/06/14 08:56:45;;;;;;;5.43;2.40;;;;;;;20.54;49.28;102274.75;5060760;28;20419;-81
2022/06/14 08:59:22;;;;;;;5.65;2.40;;;;;;;20.77;47.57;102268.34;5059337;28;21066;-80
2022/06/14 09:02:18;;;;;;;6.85;2.78;;;;;;;20.94;46.71;102262.03;5060979;28;20021;-81
2022/06/14 09:04:52;;;;;;;4.78;2.42;;;;;;;21.11;49.10;102262.09;5047971;28;20119;-81
2022/06/14 09:07:49;;;;;;;6.07;2.40;;;;;;;20.40;46.55;102263.19;5062937;28;20040;-81
2022/06/14 09:10:27;;;;;;;5.55;2.78;;;;;;;20.53;45.47;102259.31;5047657;28;20462;-81
2022/06/14 09:13:11;;;;;;;6.80;2.72;;;;;;;20.52;44.52;102265.88;5061401;28;20108;-81
2022/06/14 09:15:54;;;;;;;8.13;2.53;;;;;;;20.80;46.32;102272.53;5039234;28;20075;-81
2022/06/14 09:18:53;;;;;;;6.00;3.05;;;;;;;20.83;46.30;102272.03;5051159;28;20025;-83
2022/06/14 09:21:49;;;;;;;7.05;2.80;;;;;;;21.50;46.65;102267.69;5068984;28;20040;-81
2022/06/14 09:24:24;;;;;;;6.93;2.20;;;;;;;21.68;45.05;102266.63;5038692;28;20428;-82
2022/06/14 09:27:13;;;;;;;7.95;2.10;;;;;;;22.34;43.03;102261.19;5058797;28;20066;-82
2022/06/14 09:30:00;;;;;;;5.95;2.50;;;;;;;22.90;43.59;102271.22;5055186;28;20098;-82
2022/06/14 09:33:10;;;;;;;6.43;2.38;;;;;;;23.23;45.77;102269.38;5054417;28;20082;-82
2022/06/14 09:35:53;;;;;;;5.75;2.50;;;;;;;22.35;40.53;102262.06;5025110;28;20115;-82
2022/06/14 09:38:39;;;;;;;4.68;1.98;;;;;;;22.86;45.79;102259.88;5073387;28;20031;-81
2022/06/14 09:41:17;;;;;;;6.00;2.30;;;;;;;22.52;41.92;102250.94;5056071;28;20033;-82
2022/06/14 09:44:08;;;;;;;6.00;2.10;;;;;;;22.81;42.19;102257.06;5051982;28;20377;-81
2022/06/14 09:46:51;;;;;;;6.05;2.20;;;;;;;23.49;43.60;102250.22;5052910;28;20025;-82
2022/06/14 09:49:42;;;;;;;4.25;1.88;;;;;;;23.79;39.59;102246.00;5063884;28;20103;-83
2022/06/14 09:52:35;;;;;;;4.90;2.00;;;;;;;23.76;38.48;102241.84;5052605;28;20029;-83
2022/06/14 09:55:22;;;;;;;5.03;2.00;;;;;;;23.86;41.22;102239.09;5052653;28;20047;-81
2022/06/14 09:58:25;;;;;;;7.50;2.45;;;;;;;23.09;41.55;102231.06;5057310;28;20021;-82
2022/06/14 10:00:53;;;;;;;5.03;2.17;;;;;;;23.27;44.10;102237.34;5051572;28;20488;-82
2022/06/14 10:03:43;;;;;;;7.47;2.47;;;;;;;23.70;42.33;102235.41;5056964;28;20457;-81
2022/06/14 10:06:58;;;;;;;6.75;2.15;;;;;;;24.19;42.31;102230.72;5056637;28;20434;-81
2022/06/14 10:09:29;;;;;;;7.05;1.98;;;;;;;24.21;37.64;102231.28;5056829;28;20409;-82
2022/06/14 10:12:11;;;;;;;7.47;2.17;;;;;;;24.15;39.38;102229.59;5055623;28;20029;-82
2022/06/14 10:15:11;;;;;;;4.50;2.00;;;;;;;23.64;39.89;102227.38;5057592;28;20079;-82
2022/06/14 10:18:09;;;;;;;4.75;1.90;;;;;;;23.72;37.44;102230.47;5026565;28;20056;-82
2022/06/14 10:20:37;;;;;;;5.13;2.08;;;;;;;23.69;36.18;102230.16;5028686;28;20112;-82
2022/06/14 10:23:07;;;;;;;5.35;2.05;;;;;;;23.25;35.42;102217.41;5056839;28;20028;-82
2022/06/14 10:25:33;;;;;;;4.78;1.77;;;;;;;22.56;39.58;102207.88;5057469;28;20021;-83
2022/06/14 10:28:21;;;;;;;4.63;2.00;;;;;;;23.49;40.54;102211.50;5055347;28;20083;-81
2022/06/14 10:31:01;;;;;;;4.43;2.08;;;;;;;23.65;37.90;102209.66;5053595;28;20032;-82
2022/06/14 10:33:43;;;;;;;7.75;2.20;;;;;;;23.67;37.36;102208.28;5035170;28;20033;-83
2022/06/14 10:36:20;;;;;;;3.75;2.10;;;;;;;24.12;38.84;102194.97;5036885;28;20025;-81
2022/06/14 10:39:00;;;;;;;4.43;2.30;;;;;;;24.22;38.19;102199.72;5049358;28;20044;-83
2022/06/14 10:41:33;;;;;;;7.78;2.40;;;;;;;24.37;35.68;102208.09;5056381;28;20024;-82
2022/06/14 10:44:18;;;;;;;5.47;2.45;;;;;;;24.18;37.26;102195.81;5054372;28;20024;-82
2022/06/14 10:47:08;;;;;;;7.30;2.20;;;;;;;23.56;38.90;102195.50;5077000;28;20146;-81
2022/06/14 10:50:05;;;;;;;4.95;2.42;;;;;;;23.37;42.54;102193.16;5062850;28;20036;-83
2022/06/14 10:53:16;;;;;;;3.97;2.17;;;;;;;23.59;41.64;102186.66;5055373;28;20025;-82
2022/06/14 10:55:58;;;;;;;5.25;2.22;;;;;;;23.71;39.19;102187.28;4997352;28;20030;-83
2022/06/14 10:59:00;;;;;;;5.93;2.30;;;;;;;24.26;38.19;102184.22;5045622;28;20455;-82
2022/06/14 11:01:39;;;;;;;4.80;2.50;;;;;;;23.25;36.12;102178.69;5054328;28;20469;-83
2022/06/14 11:04:18;;;;;;;4.85;2.08;;;;;;;23.75;40.13;102166.25;5057110;28;20025;-81
2022/06/14 11:14:12;;;;;;;4.30;2.35;;;;;;;24.25;40.68;102165.97;5021803;28;20130;-83
2022/06/14 11:16:59;;;;;;;4.68;2.53;;;;;;;24.80;39.93;102174.66;5018743;28;20041;-83
2022/06/14 11:19:35;;;;;;;7.90;2.50;;;;;;;24.63;36.72;102161.06;5026829;28;20493;-80
2022/06/14 11:22:00;;;;;;;6.45;2.70;;;;;;;23.88;36.29;102158.56;5032765;28;20120;-83
2022/06/14 11:24:54;;;;;;;6.68;2.63;;;;;;;24.27;39.11;102153.50;5032807;28;20471;-82
2022/06/14 11:27:37;;;;;;;5.13;2.30;;;;;;;23.89;38.32;102151.97;5026383;28;20105;-82
2022/06/14 11:30:31;;;;;;;8.15;2.45;;;;;;;23.94;38.10;102154.78;5025281;28;20446;-82
2022/06/14 11:33:30;;;;;;;7.55;2.50;;;;;;;23.98;37.75;102153.13;5024784;28;20556;-82
2022/06/14 11:36:18;;;;;;;5.68;2.10;;;;;;;23.95;40.79;102139.84;5032774;28;20042;-83
2022/06/14 11:38:53;;;;;;;6.75;2.45;;;;;;;24.05;35.95;102142.63;5021125;28;20037;-83
2022/06/14 11:41:23;;;;;;;5.25;2.20;;;;;;;24.38;37.10;102140.47;5045769;28;20432;-82
2022/06/14 11:44:15;;;;;;;7.93;2.55;;;;;;;24.31;36.85;102139.91;5053175;28;20052;-82
2022/06/14 11:46:59;;;;;;;5.72;2.53;;;;;;;24.05;36.24;102137.09;5051627;28;20044;-83
2022/06/14 11:49:37;;;;;;;7.22;2.72;;;;;;;24.23;38.96;102132.16;5053446;28;20088;-82
2022/06/14 11:52:26;;;;;;;5.93;2.50;;;;;;;23.70;36.27;102132.22;5046543;28;20033;-82
2022/06/14 11:55:06;;;;;;;6.20;2.83;;;;;;;22.69;41.53;102123.78;5044203;28;20094;-82
2022/06/14 11:58:28;;;;;;;7.75;3.20;;;;;;;23.30;38.76;102123.44;5042783;28;20058;-83
2022/06/14 12:01:16;;;;;;;8.68;2.60;;;;;;;23.64;39.21;102125.81;4978046;28;20041;-82
2022/06/14 12:03:54;;;;;;;9.52;2.97;;;;;;;23.35;38.05;102125.38;5006162;28;20029;-83
2022/06/14 12:06:45;;;;;;;8.85;3.13;;;;;;;23.58;38.58;102118.59;5040018;28;20056;-82
2022/06/14 12:09:38;;;;;;;7.53;2.65;;;;;;;24.02;39.54;102112.72;5056280;28;20090;-81
2022/06/14 12:12:24;;;;;;;7.32;2.70;;;;;;;23.92;40.57;102121.81;5052449;28;20024;-82
2022/06/14 12:14:59;;;;;;;5.88;2.90;;;;;;;23.68;38.51;102107.59;5051456;28;20039;-81
2022/06/14 12:17:42;;;;;;;9.73;2.85;;;;;;;23.60;38.50;102120.00;5054047;28;20029;-82
2022/06/14 12:20:07;;;;;;;4.35;2.53;;;;;;;23.22;38.00;102112.88;5052313;28;20460;-83
2022/06/14 12:22:50;;;;;;;7.07;3.00;;;;;;;23.69;38.53;102106.50;5053745;28;20040;-82
2022/06/14 12:28:34;;;;;;;6.40;2.90;;;;;;;24.02;39.93;102112.72;5054129;28;20090;-82
2022/06/14 12:31:11;;;;;;;7.45;2.78;;;;;;;23.66;39.22;102101.47;5042296;28;20147;-82
2022/06/14 12:33:50;;;;;;;6.32;2.42;;;;;;;23.90;39.46;102090.81;5050741;28;20044;-81
2022/06/14 12:36:37;;;;;;;7.88;2.50;;;;;;;23.35;36.09;102106.88;5040844;28;20033;-84
2022/06/14 12:39:29;;;;;;;6.18;2.60;;;;;;;23.16;36.87;102098.19;5041512;28;20040;-83
2022/06/14 12:42:04;;;;;;;9.35;2.67;;;;;;;22.81;35.90;102099.56;5040952;28;20037;-84